sensor_id;sensor_type;location;lat;lon;timestamp;P1;durP1;ratioP1;P2;durP2;ratioP2
4148;SDS011;2088;51.032;7.082;2022-11-20T00:02:09;15.30;;;6.70;;
4148;SDS011;2088;51.032;7.082;2022-11-20T00:04:35;10.90;;;7.00;;
4148;SDS011;2088;51.032;7.082;2022-11-20T00:07:02;11.93;;;6.37;;
4148;SDS011;2088;51.032;7.082;2022-11-20T00:09:28;12.70;;;7.50;;
4148;SDS011;2088;51.032;7.082;2022-11-20T00:11:54;12.43;;;6.07;;
4148;SDS011;2088;51.032;7.082;2022-11-20T00:14:21;14.03;;;7.00;;
4148;SDS011;2088;51.032;7.082;2022-11-20T00:16:47;11.97;;;6.97;;
4148;SDS011;2088;51.032;7.082;2022-11-20T00:19:15;14.97;;;6.40;;
4148;SDS011;2088;51.032;7.082;2022-11-20T00:21:41;13.63;;;6.90;;
4148;SDS011;2088;51.032;7.082;2022-11-20T00:24:08;12.23;;;6.20;;
4148;SDS011;2088;51.032;7.082;2022-11-20T00:26:35;12.70;;;6.17;;
4148;SDS011;2088;51.032;7.082;2022-11-20T00:29:02;10.97;;;5.67;;
4148;SDS011;2088;51.032;7.082;2022-11-20T00:31:29;16.03;;;9.20;;
4148;SDS011;2088;51.032;7.082;2022-11-20T00:33:58;14.10;;;6.83;;
4148;SDS011;2088;51.032;7.082;2022-11-20T00:36:26;10.10;;;6.77;;
4148;SDS011;2088;51.032;7.082;2022-11-20T00:38:54;12.00;;;6.50;;
4148;SDS011;2088;51.032;7.082;2022-11-20T00:41:22;12.93;;;7.07;;
4148;SDS011;2088;51.032;7.082;2022-11-20T00:43:50;8.77;;;5.50;;
4148;SDS011;2088;51.032;7.082;2022-11-20T00:46:18;15.70;;;6.30;;
4148;SDS011;2088;51.032;7.082;2022-11-20T00:48:46;13.13;;;5.97;;
4148;SDS011;2088;51.032;7.082;2022-11-20T00:51:13;15.53;;;7.77;;
4148;SDS011;2088;51.032;7.082;2022-11-20T00:53:42;10.30;;;6.57;;
4148;SDS011;2088;51.032;7.082;2022-11-20T00:56:09;14.27;;;6.77;;
4148;SDS011;2088;51.032;7.082;2022-11-20T00:58:37;14.07;;;6.43;;
4148;SDS011;2088;51.032;7.082;2022-11-20T01:01:05;9.33;;;5.83;;
4148;SDS011;2088;51.032;7.082;2022-11-20T01:03:33;10.37;;;6.23;;
4148;SDS011;2088;51.032;7.082;2022-11-20T01:06:01;14.20;;;6.30;;
4148;SDS011;2088;51.032;7.082;2022-11-20T01:08:31;12.20;;;6.03;;
4148;SDS011;2088;51.032;7.082;2022-11-20T01:11:00;10.50;;;5.50;;
4148;SDS011;2088;51.032;7.082;2022-11-20T01:13:28;9.30;;;5.60;;
4148;SDS011;2088;51.032;7.082;2022-11-20T01:16:04;11.60;;;6.23;;
4148;SDS011;2088;51.032;7.082;2022-11-20T01:18:32;12.80;;;6.63;;
4148;SDS011;2088;51.032;7.082;2022-11-20T01:21:00;12.20;;;5.80;;
4148;SDS011;2088;51.032;7.082;2022-11-20T01:23:30;10.83;;;6.53;;
4148;SDS011;2088;51.032;7.082;2022-11-20T01:25:58;9.53;;;5.13;;
4148;SDS011;2088;51.032;7.082;2022-11-20T01:28:28;9.47;;;5.93;;
4148;SDS011;2088;51.032;7.082;2022-11-20T01:30:54;15.03;;;7.20;;
4148;SDS011;2088;51.032;7.082;2022-11-20T01:33:21;8.57;;;6.10;;
4148;SDS011;2088;51.032;7.082;2022-11-20T01:35:47;14.50;;;7.20;;
4148;SDS011;2088;51.032;7.082;2022-11-20T01:38:14;12.33;;;6.20;;
4148;SDS011;2088;51.032;7.082;2022-11-20T01:40:41;13.57;;;6.27;;
4148;SDS011;2088;51.032;7.082;2022-11-20T01:43:12;11.40;;;6.20;;
4148;SDS011;2088;51.032;7.082;2022-11-20T01:48:43;16.03;;;6.33;;
4148;SDS011;2088;51.032;7.082;2022-11-20T01:51:17;10.07;;;5.83;;
4148;SDS011;2088;51.032;7.082;2022-11-20T01:53:47;18.50;;;7.13;;
4148;SDS011;2088;51.032;7.082;2022-11-20T01:56:14;11.57;;;6.43;;
4148;SDS011;2088;51.032;7.082;2022-11-20T01:58:43;13.57;;;6.80;;
4148;SDS011;2088;51.032;7.082;2022-11-20T02:01:14;10.80;;;6.27;;
4148;SDS011;2088;51.032;7.082;2022-11-20T02:03:41;13.77;;;7.20;;
4148;SDS011;2088;51.032;7.082;2022-11-20T02:06:10;14.90;;;7.57;;
4148;SDS011;2088;51.032;7.082;2022-11-20T02:08:41;9.57;;;5.73;;
4148;SDS011;2088;51.032;7.082;2022-11-20T02:11:07;12.20;;;7.33;;
4148;SDS011;2088;51.032;7.082;2022-11-20T02:13:34;11.70;;;6.10;;
4148;SDS011;2088;51.032;7.082;2022-11-20T02:16:11;10.80;;;6.10;;
4148;SDS011;2088;51.032;7.082;2022-11-20T02:18:41;14.27;;;7.17;;
4148;SDS011;2088;51.032;7.082;2022-11-20T02:21:09;11.33;;;6.53;;
4148;SDS011;2088;51.032;7.082;2022-11-20T02:23:52;13.00;;;6.73;;
4148;SDS011;2088;51.032;7.082;2022-11-20T02:26:23;10.53;;;5.80;;
4148;SDS011;2088;51.032;7.082;2022-11-20T02:28:52;11.33;;;6.07;;
4148;SDS011;2088;51.032;7.082;2022-11-20T02:31:19;12.83;;;6.03;;
4148;SDS011;2088;51.032;7.082;2022-11-20T02:33:45;14.27;;;6.90;;
4148;SDS011;2088;51.032;7.082;2022-11-20T02:36:13;11.20;;;6.80;;
4148;SDS011;2088;51.032;7.082;2022-11-20T02:38:42;13.43;;;5.73;;
4148;SDS011;2088;51.032;7.082;2022-11-20T02:41:11;11.53;;;6.50;;
4148;SDS011;2088;51.032;7.082;2022-11-20T02:43:37;13.93;;;7.50;;
4148;SDS011;2088;51.032;7.082;2022-11-20T02:46:05;10.60;;;6.37;;
4148;SDS011;2088;51.032;7.082;2022-11-20T02:48:32;13.27;;;6.83;;
4148;SDS011;2088;51.032;7.082;2022-11-20T02:50:59;13.20;;;6.17;;
4148;SDS011;2088;51.032;7.082;2022-11-20T02:53:25;13.23;;;6.53;;
4148;SDS011;2088;51.032;7.082;2022-11-20T02:55:52;12.93;;;6.90;;
4148;SDS011;2088;51.032;7.082;2022-11-20T02:58:20;12.30;;;6.20;;
4148;SDS011;2088;51.032;7.082;2022-11-20T03:00:46;10.03;;;5.77;;
4148;SDS011;2088;51.032;7.082;2022-11-20T03:03:13;10.33;;;6.07;;
4148;SDS011;2088;51.032;7.082;2022-11-20T03:05:39;15.23;;;6.90;;
4148;SDS011;2088;51.032;7.082;2022-11-20T03:08:05;16.93;;;6.90;;
4148;SDS011;2088;51.032;7.082;2022-11-20T03:10:32;14.27;;;6.33;;
4148;SDS011;2088;51.032;7.082;2022-11-20T03:12:58;15.30;;;8.40;;
4148;SDS011;2088;51.032;7.082;2022-11-20T03:15:26;16.10;;;6.80;;
4148;SDS011;2088;51.032;7.082;2022-11-20T03:17:53;14.63;;;7.20;;
4148;SDS011;2088;51.032;7.082;2022-11-20T03:20:20;11.80;;;6.03;;
4148;SDS011;2088;51.032;7.082;2022-11-20T03:22:47;13.37;;;7.13;;
4148;SDS011;2088;51.032;7.082;2022-11-20T03:25:13;11.17;;;6.67;;
4148;SDS011;2088;51.032;7.082;2022-11-20T03:27:40;12.07;;;6.70;;
4148;SDS011;2088;51.032;7.082;2022-11-20T03:30:07;11.57;;;6.43;;
4148;SDS011;2088;51.032;7.082;2022-11-20T03:32:35;13.17;;;6.17;;
4148;SDS011;2088;51.032;7.082;2022-11-20T03:35:02;13.20;;;6.87;;
4148;SDS011;2088;51.032;7.082;2022-11-20T03:37:29;17.27;;;6.73;;
4148;SDS011;2088;51.032;7.082;2022-11-20T03:39:55;12.27;;;6.97;;
4148;SDS011;2088;51.032;7.082;2022-11-20T03:42:22;9.67;;;5.73;;
4148;SDS011;2088;51.032;7.082;2022-11-20T03:45:06;11.80;;;6.10;;
4148;SDS011;2088;51.032;7.082;2022-11-20T03:47:33;14.23;;;7.37;;
4148;SDS011;2088;51.032;7.082;2022-11-20T03:50:01;12.03;;;6.87;;
4148;SDS011;2088;51.032;7.082;2022-11-20T03:52:27;12.53;;;6.87;;
4148;SDS011;2088;51.032;7.082;2022-11-20T03:54:54;12.67;;;6.50;;
4148;SDS011;2088;51.032;7.082;2022-11-20T03:57:20;11.60;;;6.47;;
4148;SDS011;2088;51.032;7.082;2022-11-20T03:59:47;11.90;;;6.57;;
4148;SDS011;2088;51.032;7.082;2022-11-20T04:02:13;12.13;;;7.10;;
4148;SDS011;2088;51.032;7.082;2022-11-20T04:04:40;11.30;;;6.60;;
4148;SDS011;2088;51.032;7.082;2022-11-20T04:07:07;17.53;;;6.90;;
4148;SDS011;2088;51.032;7.082;2022-11-20T04:09:34;13.10;;;7.00;;
4148;SDS011;2088;51.032;7.082;2022-11-20T04:12:00;12.40;;;7.10;;
4148;SDS011;2088;51.032;7.082;2022-11-20T04:14:27;12.17;;;6.17;;
4148;SDS011;2088;51.032;7.082;2022-11-20T04:16:53;11.30;;;6.40;;
4148;SDS011;2088;51.032;7.082;2022-11-20T04:19:20;14.90;;;7.13;;
4148;SDS011;2088;51.032;7.082;2022-11-20T04:21:46;14.40;;;7.00;;
4148;SDS011;2088;51.032;7.082;2022-11-20T04:24:14;14.33;;;6.40;;
4148;SDS011;2088;51.032;7.082;2022-11-20T04:26:40;12.80;;;7.10;;
4148;SDS011;2088;51.032;7.082;2022-11-20T04:29:09;13.50;;;6.40;;
4148;SDS011;2088;51.032;7.082;2022-11-20T04:31:36;13.90;;;7.17;;
4148;SDS011;2088;51.032;7.082;2022-11-20T04:34:05;15.20;;;8.13;;
4148;SDS011;2088;51.032;7.082;2022-11-20T04:36:33;17.13;;;7.97;;
4148;SDS011;2088;51.032;7.082;2022-11-20T04:39:01;12.90;;;6.67;;
4148;SDS011;2088;51.032;7.082;2022-11-20T04:41:31;17.03;;;7.00;;
4148;SDS011;2088;51.032;7.082;2022-11-20T04:43:59;19.40;;;7.17;;
4148;SDS011;2088;51.032;7.082;2022-11-20T04:46:28;12.77;;;6.80;;
4148;SDS011;2088;51.032;7.082;2022-11-20T04:48:56;15.90;;;6.80;;
4148;SDS011;2088;51.032;7.082;2022-11-20T04:51:23;16.77;;;8.40;;
4148;SDS011;2088;51.032;7.082;2022-11-20T04:53:50;13.17;;;8.43;;
4148;SDS011;2088;51.032;7.082;2022-11-20T04:56:16;13.53;;;6.97;;
4148;SDS011;2088;51.032;7.082;2022-11-20T04:58:44;13.47;;;7.07;;
4148;SDS011;2088;51.032;7.082;2022-11-20T05:01:11;14.17;;;6.77;;
4148;SDS011;2088;51.032;7.082;2022-11-20T05:03:39;15.87;;;8.03;;
4148;SDS011;2088;51.032;7.082;2022-11-20T05:06:05;12.97;;;6.70;;
4148;SDS011;2088;51.032;7.082;2022-11-20T05:08:33;19.30;;;7.40;;
4148;SDS011;2088;51.032;7.082;2022-11-20T05:11:01;13.73;;;7.07;;
4148;SDS011;2088;51.032;7.082;2022-11-20T05:13:28;13.93;;;6.40;;
4148;SDS011;2088;51.032;7.082;2022-11-20T05:15:59;19.40;;;9.40;;
4148;SDS011;2088;51.032;7.082;2022-11-20T05:18:27;13.20;;;7.67;;
4148;SDS011;2088;51.032;7.082;2022-11-20T05:20:54;15.77;;;7.17;;
4148;SDS011;2088;51.032;7.082;2022-11-20T05:23:21;19.97;;;6.90;;
4148;SDS011;2088;51.032;7.082;2022-11-20T05:25:48;15.13;;;7.70;;
4148;SDS011;2088;51.032;7.082;2022-11-20T05:28:18;16.73;;;6.80;;
4148;SDS011;2088;51.032;7.082;2022-11-20T05:30:44;14.40;;;8.27;;
4148;SDS011;2088;51.032;7.082;2022-11-20T05:33:12;17.20;;;8.30;;
4148;SDS011;2088;51.032;7.082;2022-11-20T05:35:38;13.33;;;7.53;;
4148;SDS011;2088;51.032;7.082;2022-11-20T05:38:05;13.77;;;7.20;;
4148;SDS011;2088;51.032;7.082;2022-11-20T05:40:31;17.50;;;7.93;;
4148;SDS011;2088;51.032;7.082;2022-11-20T05:42:58;15.50;;;7.90;;
4148;SDS011;2088;51.032;7.082;2022-11-20T05:45:25;14.63;;;7.47;;
4148;SDS011;2088;51.032;7.082;2022-11-20T05:47:52;13.83;;;7.60;;
4148;SDS011;2088;51.032;7.082;2022-11-20T05:50:20;15.50;;;8.03;;
4148;SDS011;2088;51.032;7.082;2022-11-20T05:52:46;13.97;;;7.50;;
4148;SDS011;2088;51.032;7.082;2022-11-20T05:55:13;18.90;;;8.27;;
4148;SDS011;2088;51.032;7.082;2022-11-20T05:57:39;15.30;;;8.70;;
4148;SDS011;2088;51.032;7.082;2022-11-20T06:00:06;13.10;;;7.73;;
4148;SDS011;2088;51.032;7.082;2022-11-20T06:02:34;17.03;;;7.70;;
4148;SDS011;2088;51.032;7.082;2022-11-20T06:05:00;13.03;;;6.77;;
4148;SDS011;2088;51.032;7.082;2022-11-20T06:07:28;20.30;;;7.27;;
4148;SDS011;2088;51.032;7.082;2022-11-20T06:09:55;18.43;;;7.60;;
4148;SDS011;2088;51.032;7.082;2022-11-20T06:12:21;12.30;;;8.00;;
4148;SDS011;2088;51.032;7.082;2022-11-20T06:14:47;15.63;;;7.70;;
4148;SDS011;2088;51.032;7.082;2022-11-20T06:17:14;17.67;;;7.83;;
4148;SDS011;2088;51.032;7.082;2022-11-20T06:19:40;16.80;;;9.00;;
4148;SDS011;2088;51.032;7.082;2022-11-20T06:22:07;18.37;;;8.20;;
4148;SDS011;2088;51.032;7.082;2022-11-20T06:24:34;14.17;;;7.97;;
4148;SDS011;2088;51.032;7.082;2022-11-20T06:27:01;14.10;;;7.23;;
4148;SDS011;2088;51.032;7.082;2022-11-20T06:29:27;15.50;;;7.60;;
4148;SDS011;2088;51.032;7.082;2022-11-20T06:31:54;11.07;;;6.73;;
4148;SDS011;2088;51.032;7.082;2022-11-20T06:34:20;15.00;;;8.23;;
4148;SDS011;2088;51.032;7.082;2022-11-20T06:36:46;20.90;;;9.70;;
4148;SDS011;2088;51.032;7.082;2022-11-20T06:39:13;14.67;;;7.43;;
4148;SDS011;2088;51.032;7.082;2022-11-20T06:41:41;13.10;;;8.90;;
4148;SDS011;2088;51.032;7.082;2022-11-20T06:44:07;16.33;;;7.50;;
4148;SDS011;2088;51.032;7.082;2022-11-20T06:46:33;16.90;;;8.87;;
4148;SDS011;2088;51.032;7.082;2022-11-20T06:49:00;18.57;;;8.10;;
4148;SDS011;2088;51.032;7.082;2022-11-20T06:51:26;16.43;;;8.43;;
4148;SDS011;2088;51.032;7.082;2022-11-20T06:53:53;20.43;;;9.73;;
4148;SDS011;2088;51.032;7.082;2022-11-20T06:56:19;19.10;;;9.60;;
4148;SDS011;2088;51.032;7.082;2022-11-20T06:58:47;25.73;;;11.83;;
4148;SDS011;2088;51.032;7.082;2022-11-20T07:01:14;30.57;;;13.83;;
4148;SDS011;2088;51.032;7.082;2022-11-20T07:03:41;24.13;;;12.60;;
4148;SDS011;2088;51.032;7.082;2022-11-20T07:06:08;27.63;;;13.20;;
4148;SDS011;2088;51.032;7.082;2022-11-20T07:08:35;22.67;;;11.90;;
4148;SDS011;2088;51.032;7.082;2022-11-20T07:11:02;20.77;;;10.00;;
4148;SDS011;2088;51.032;7.082;2022-11-20T07:13:30;17.37;;;8.80;;
4148;SDS011;2088;51.032;7.082;2022-11-20T07:16:00;19.37;;;10.50;;
4148;SDS011;2088;51.032;7.082;2022-11-20T07:18:27;25.63;;;13.20;;
4148;SDS011;2088;51.032;7.082;2022-11-20T07:20:53;21.37;;;10.83;;
4148;SDS011;2088;51.032;7.082;2022-11-20T07:23:20;18.10;;;9.50;;
4148;SDS011;2088;51.032;7.082;2022-11-20T07:25:46;20.70;;;9.53;;
4148;SDS011;2088;51.032;7.082;2022-11-20T07:28:13;16.47;;;9.00;;
4148;SDS011;2088;51.032;7.082;2022-11-20T07:30:39;16.97;;;10.03;;
4148;SDS011;2088;51.032;7.082;2022-11-20T07:33:07;17.63;;;9.43;;
4148;SDS011;2088;51.032;7.082;2022-11-20T07:35:34;20.33;;;10.80;;
4148;SDS011;2088;51.032;7.082;2022-11-20T07:38:00;24.37;;;12.33;;
4148;SDS011;2088;51.032;7.082;2022-11-20T07:40:27;29.07;;;12.60;;
4148;SDS011;2088;51.032;7.082;2022-11-20T07:42:54;18.53;;;11.50;;
4148;SDS011;2088;51.032;7.082;2022-11-20T07:45:21;18.13;;;9.47;;
4148;SDS011;2088;51.032;7.082;2022-11-20T07:47:49;18.90;;;8.90;;
4148;SDS011;2088;51.032;7.082;2022-11-20T07:50:17;16.27;;;7.53;;
4148;SDS011;2088;51.032;7.082;2022-11-20T07:52:44;22.97;;;10.30;;
4148;SDS011;2088;51.032;7.082;2022-11-20T07:55:10;19.20;;;9.37;;
4148;SDS011;2088;51.032;7.082;2022-11-20T07:57:37;20.13;;;8.20;;
4148;SDS011;2088;51.032;7.082;2022-11-20T08:00:04;17.60;;;10.57;;
4148;SDS011;2088;51.032;7.082;2022-11-20T08:02:33;18.03;;;6.90;;
4148;SDS011;2088;51.032;7.082;2022-11-20T08:05:00;15.00;;;7.50;;
4148;SDS011;2088;51.032;7.082;2022-11-20T08:07:27;17.73;;;7.60;;
4148;SDS011;2088;51.032;7.082;2022-11-20T08:09:54;18.80;;;7.87;;
4148;SDS011;2088;51.032;7.082;2022-11-20T08:12:20;16.20;;;8.10;;
4148;SDS011;2088;51.032;7.082;2022-11-20T08:15:05;21.57;;;9.83;;
4148;SDS011;2088;51.032;7.082;2022-11-20T08:17:33;18.37;;;9.17;;
4148;SDS011;2088;51.032;7.082;2022-11-20T08:19:59;19.80;;;9.00;;
4148;SDS011;2088;51.032;7.082;2022-11-20T08:22:25;24.87;;;9.33;;
4148;SDS011;2088;51.032;7.082;2022-11-20T08:24:53;13.80;;;6.80;;
4148;SDS011;2088;51.032;7.082;2022-11-20T08:27:19;15.03;;;8.70;;
4148;SDS011;2088;51.032;7.082;2022-11-20T08:29:46;15.93;;;8.90;;
4148;SDS011;2088;51.032;7.082;2022-11-20T08:32:12;20.13;;;10.30;;
4148;SDS011;2088;51.032;7.082;2022-11-20T08:34:40;16.43;;;7.90;;
4148;SDS011;2088;51.032;7.082;2022-11-20T08:37:06;20.73;;;9.93;;
4148;SDS011;2088;51.032;7.082;2022-11-20T08:39:33;15.67;;;8.33;;
4148;SDS011;2088;51.032;7.082;2022-11-20T08:42:00;19.00;;;9.33;;
4148;SDS011;2088;51.032;7.082;2022-11-20T08:44:27;17.00;;;9.40;;
4148;SDS011;2088;51.032;7.082;2022-11-20T08:46:53;18.10;;;9.93;;
4148;SDS011;2088;51.032;7.082;2022-11-20T08:49:20;19.13;;;8.83;;
4148;SDS011;2088;51.032;7.082;2022-11-20T08:51:47;15.37;;;8.60;;
4148;SDS011;2088;51.032;7.082;2022-11-20T08:54:16;16.17;;;8.93;;
4148;SDS011;2088;51.032;7.082;2022-11-20T08:56:44;21.30;;;10.23;;
4148;SDS011;2088;51.032;7.082;2022-11-20T08:59:12;22.67;;;9.80;;
4148;SDS011;2088;51.032;7.082;2022-11-20T09:01:39;13.53;;;8.10;;
4148;SDS011;2088;51.032;7.082;2022-11-20T09:04:05;17.53;;;10.30;;
4148;SDS011;2088;51.032;7.082;2022-11-20T09:06:32;19.57;;;9.63;;
4148;SDS011;2088;51.032;7.082;2022-11-20T09:08:58;16.20;;;8.20;;
4148;SDS011;2088;51.032;7.082;2022-11-20T09:11:24;19.23;;;9.23;;
4148;SDS011;2088;51.032;7.082;2022-11-20T09:13:51;18.43;;;8.90;;
4148;SDS011;2088;51.032;7.082;2022-11-20T09:16:19;15.70;;;7.43;;
4148;SDS011;2088;51.032;7.082;2022-11-20T09:18:45;15.60;;;8.67;;
4148;SDS011;2088;51.032;7.082;2022-11-20T09:21:12;14.43;;;7.53;;
4148;SDS011;2088;51.032;7.082;2022-11-20T09:23:39;17.57;;;7.70;;
4148;SDS011;2088;51.032;7.082;2022-11-20T09:26:06;17.80;;;8.80;;
4148;SDS011;2088;51.032;7.082;2022-11-20T09:28:35;24.53;;;8.37;;
4148;SDS011;2088;51.032;7.082;2022-11-20T09:31:04;14.00;;;6.43;;
4148;SDS011;2088;51.032;7.082;2022-11-20T09:33:32;15.57;;;7.97;;
4148;SDS011;2088;51.032;7.082;2022-11-20T09:35:59;17.97;;;8.57;;
4148;SDS011;2088;51.032;7.082;2022-11-20T09:38:25;15.40;;;7.73;;
4148;SDS011;2088;51.032;7.082;2022-11-20T09:40:53;13.73;;;7.20;;
4148;SDS011;2088;51.032;7.082;2022-11-20T09:43:26;15.13;;;7.43;;
4148;SDS011;2088;51.032;7.082;2022-11-20T09:46:02;14.33;;;7.70;;
4148;SDS011;2088;51.032;7.082;2022-11-20T09:48:40;13.23;;;6.33;;
4148;SDS011;2088;51.032;7.082;2022-11-20T09:51:16;15.43;;;7.17;;
4148;SDS011;2088;51.032;7.082;2022-11-20T09:53:55;10.20;;;5.77;;
4148;SDS011;2088;51.032;7.082;2022-11-20T09:56:30;11.70;;;6.50;;
4148;SDS011;2088;51.032;7.082;2022-11-20T09:59:02;15.60;;;6.80;;
4148;SDS011;2088;51.032;7.082;2022-11-20T10:01:31;12.20;;;6.30;;
4148;SDS011;2088;51.032;7.082;2022-11-20T10:04:03;14.30;;;7.83;;
4148;SDS011;2088;51.032;7.082;2022-11-20T10:06:32;14.27;;;7.50;;
4148;SDS011;2088;51.032;7.082;2022-11-20T10:09:11;15.73;;;6.50;;
4148;SDS011;2088;51.032;7.082;2022-11-20T10:11:46;14.30;;;7.40;;
4148;SDS011;2088;51.032;7.082;2022-11-20T10:14:21;11.00;;;6.60;;
4148;SDS011;2088;51.032;7.082;2022-11-20T10:17:00;19.10;;;9.30;;
4148;SDS011;2088;51.032;7.082;2022-11-20T10:19:42;9.33;;;5.60;;
4148;SDS011;2088;51.032;7.082;2022-11-20T10:22:21;12.27;;;7.27;;
4148;SDS011;2088;51.032;7.082;2022-11-20T10:25:01;13.87;;;6.97;;
4148;SDS011;2088;51.032;7.082;2022-11-20T10:27:39;11.97;;;6.53;;
4148;SDS011;2088;51.032;7.082;2022-11-20T10:30:19;13.47;;;6.40;;
4148;SDS011;2088;51.032;7.082;2022-11-20T10:32:50;18.20;;;7.97;;
4148;SDS011;2088;51.032;7.082;2022-11-20T10:35:22;12.33;;;6.50;;
4148;SDS011;2088;51.032;7.082;2022-11-20T10:37:55;17.10;;;7.37;;
4148;SDS011;2088;51.032;7.082;2022-11-20T10:40:27;12.17;;;6.40;;
4148;SDS011;2088;51.032;7.082;2022-11-20T10:42:59;15.10;;;6.27;;
4148;SDS011;2088;51.032;7.082;2022-11-20T10:45:31;13.20;;;6.60;;
4148;SDS011;2088;51.032;7.082;2022-11-20T10:48:09;12.30;;;6.77;;
4148;SDS011;2088;51.032;7.082;2022-11-20T10:50:43;9.50;;;6.20;;
4148;SDS011;2088;51.032;7.082;2022-11-20T10:53:35;15.20;;;6.67;;
4148;SDS011;2088;51.032;7.082;2022-11-20T10:56:18;11.73;;;7.20;;
4148;SDS011;2088;51.032;7.082;2022-11-20T10:58:51;13.00;;;6.57;;
4148;SDS011;2088;51.032;7.082;2022-11-20T11:01:39;12.70;;;7.30;;
4148;SDS011;2088;51.032;7.082;2022-11-20T11:04:11;14.73;;;7.60;;
4148;SDS011;2088;51.032;7.082;2022-11-20T11:06:51;12.90;;;6.30;;
4148;SDS011;2088;51.032;7.082;2022-11-20T11:09:21;21.60;;;9.97;;
4148;SDS011;2088;51.032;7.082;2022-11-20T11:11:58;15.10;;;6.77;;
4148;SDS011;2088;51.032;7.082;2022-11-20T11:14:25;17.37;;;7.37;;
4148;SDS011;2088;51.032;7.082;2022-11-20T11:16:52;13.33;;;7.70;;
4148;SDS011;2088;51.032;7.082;2022-11-20T11:19:20;13.37;;;7.53;;
4148;SDS011;2088;51.032;7.082;2022-11-20T11:21:47;13.80;;;7.70;;
4148;SDS011;2088;51.032;7.082;2022-11-20T11:24:21;14.20;;;7.77;;
4148;SDS011;2088;51.032;7.082;2022-11-20T11:26:58;14.20;;;7.57;;
4148;SDS011;2088;51.032;7.082;2022-11-20T11:29:44;16.80;;;8.07;;
4148;SDS011;2088;51.032;7.082;2022-11-20T11:32:11;17.13;;;8.80;;
4148;SDS011;2088;51.032;7.082;2022-11-20T11:34:39;17.77;;;8.27;;
4148;SDS011;2088;51.032;7.082;2022-11-20T11:37:10;18.27;;;8.87;;
4148;SDS011;2088;51.032;7.082;2022-11-20T11:39:44;16.23;;;8.50;;
4148;SDS011;2088;51.032;7.082;2022-11-20T11:42:13;14.50;;;8.33;;
4148;SDS011;2088;51.032;7.082;2022-11-20T11:44:43;15.40;;;8.47;;
4148;SDS011;2088;51.032;7.082;2022-11-20T11:47:26;18.50;;;8.30;;
4148;SDS011;2088;51.032;7.082;2022-11-20T11:50:08;17.00;;;7.50;;
4148;SDS011;2088;51.032;7.082;2022-11-20T11:52:42;16.73;;;7.93;;
4148;SDS011;2088;51.032;7.082;2022-11-20T11:55:14;16.43;;;8.67;;
4148;SDS011;2088;51.032;7.082;2022-11-20T11:57:46;20.83;;;11.67;;
4148;SDS011;2088;51.032;7.082;2022-11-20T12:00:19;16.27;;;7.97;;
4148;SDS011;2088;51.032;7.082;2022-11-20T12:02:51;17.33;;;8.20;;
4148;SDS011;2088;51.032;7.082;2022-11-20T12:05:24;17.17;;;7.60;;
4148;SDS011;2088;51.032;7.082;2022-11-20T12:07:55;13.13;;;7.63;;
4148;SDS011;2088;51.032;7.082;2022-11-20T12:10:37;13.10;;;7.23;;
4148;SDS011;2088;51.032;7.082;2022-11-20T12:13:13;17.03;;;8.40;;
4148;SDS011;2088;51.032;7.082;2022-11-20T12:15:47;16.70;;;8.50;;
4148;SDS011;2088;51.032;7.082;2022-11-20T12:18:14;15.07;;;7.70;;
4148;SDS011;2088;51.032;7.082;2022-11-20T12:20:44;18.30;;;8.80;;
4148;SDS011;2088;51.032;7.082;2022-11-20T12:23:17;17.43;;;8.93;;
4148;SDS011;2088;51.032;7.082;2022-11-20T12:25:56;16.10;;;8.00;;
4148;SDS011;2088;51.032;7.082;2022-11-20T12:28:34;13.77;;;7.07;;
4148;SDS011;2088;51.032;7.082;2022-11-20T12:31:16;18.10;;;8.23;;
4148;SDS011;2088;51.032;7.082;2022-11-20T12:36:45;16.83;;;9.27;;
4148;SDS011;2088;51.032;7.082;2022-11-20T12:39:22;15.67;;;8.30;;
4148;SDS011;2088;51.032;7.082;2022-11-20T12:45:52;16.27;;;8.60;;
4148;SDS011;2088;51.032;7.082;2022-11-20T12:54:29;16.10;;;8.43;;
4148;SDS011;2088;51.032;7.082;2022-11-20T12:57:09;19.03;;;8.90;;
4148;SDS011;2088;51.032;7.082;2022-11-20T12:59:51;15.43;;;8.30;;
4148;SDS011;2088;51.032;7.082;2022-11-20T13:02:29;16.50;;;8.83;;
4148;SDS011;2088;51.032;7.082;2022-11-20T13:05:11;18.00;;;8.87;;
4148;SDS011;2088;51.032;7.082;2022-11-20T13:07:45;16.47;;;8.10;;
4148;SDS011;2088;51.032;7.082;2022-11-20T13:10:14;18.57;;;9.10;;
4148;SDS011;2088;51.032;7.082;2022-11-20T13:12:48;14.70;;;7.70;;
4148;SDS011;2088;51.032;7.082;2022-11-20T13:15:26;16.70;;;8.50;;
4148;SDS011;2088;51.032;7.082;2022-11-20T13:18:10;22.10;;;9.47;;
4148;SDS011;2088;51.032;7.082;2022-11-20T13:20:41;16.60;;;7.60;;
4148;SDS011;2088;51.032;7.082;2022-11-20T13:23:09;18.60;;;8.60;;
4148;SDS011;2088;51.032;7.082;2022-11-20T13:29:02;14.93;;;8.00;;
4148;SDS011;2088;51.032;7.082;2022-11-20T13:31:35;14.57;;;7.50;;
4148;SDS011;2088;51.032;7.082;2022-11-20T13:34:07;17.57;;;9.50;;
4148;SDS011;2088;51.032;7.082;2022-11-20T13:36:48;17.40;;;9.57;;
4148;SDS011;2088;51.032;7.082;2022-11-20T13:39:23;15.90;;;7.83;;
4148;SDS011;2088;51.032;7.082;2022-11-20T13:41:53;16.87;;;8.93;;
4148;SDS011;2088;51.032;7.082;2022-11-20T13:44:23;20.30;;;10.23;;
4148;SDS011;2088;51.032;7.082;2022-11-20T13:46:54;20.33;;;10.60;;
4148;SDS011;2088;51.032;7.082;2022-11-20T13:49:23;41.63;;;18.47;;
4148;SDS011;2088;51.032;7.082;2022-11-20T13:51:54;22.23;;;11.40;;
4148;SDS011;2088;51.032;7.082;2022-11-20T13:54:37;17.00;;;8.77;;
4148;SDS011;2088;51.032;7.082;2022-11-20T14:00:13;18.70;;;8.23;;
4148;SDS011;2088;51.032;7.082;2022-11-20T14:02:42;15.50;;;7.67;;
4148;SDS011;2088;51.032;7.082;2022-11-20T14:05:15;21.33;;;8.97;;
4148;SDS011;2088;51.032;7.082;2022-11-20T14:07:47;15.43;;;7.47;;
4148;SDS011;2088;51.032;7.082;2022-11-20T14:10:19;15.87;;;7.40;;
4148;SDS011;2088;51.032;7.082;2022-11-20T14:12:48;16.67;;;8.57;;
4148;SDS011;2088;51.032;7.082;2022-11-20T14:15:23;20.10;;;9.00;;
4148;SDS011;2088;51.032;7.082;2022-11-20T14:17:53;12.30;;;7.30;;
4148;SDS011;2088;51.032;7.082;2022-11-20T14:20:20;15.80;;;8.50;;
4148;SDS011;2088;51.032;7.082;2022-11-20T14:22:50;16.43;;;7.53;;
4148;SDS011;2088;51.032;7.082;2022-11-20T14:25:19;17.30;;;9.33;;
4148;SDS011;2088;51.032;7.082;2022-11-20T14:27:50;16.97;;;9.07;;
4148;SDS011;2088;51.032;7.082;2022-11-20T14:30:19;13.97;;;7.33;;
4148;SDS011;2088;51.032;7.082;2022-11-20T14:32:48;21.87;;;8.20;;
4148;SDS011;2088;51.032;7.082;2022-11-20T14:35:18;12.50;;;6.80;;
4148;SDS011;2088;51.032;7.082;2022-11-20T14:37:49;14.57;;;7.43;;
4148;SDS011;2088;51.032;7.082;2022-11-20T14:40:22;19.20;;;8.73;;
4148;SDS011;2088;51.032;7.082;2022-11-20T14:42:50;17.30;;;7.83;;
4148;SDS011;2088;51.032;7.082;2022-11-20T14:45:16;15.50;;;8.03;;
4148;SDS011;2088;51.032;7.082;2022-11-20T14:47:44;16.00;;;8.13;;
4148;SDS011;2088;51.032;7.082;2022-11-20T14:50:12;14.33;;;8.43;;
4148;SDS011;2088;51.032;7.082;2022-11-20T14:52:50;15.60;;;7.63;;
4148;SDS011;2088;51.032;7.082;2022-11-20T14:55:27;15.50;;;7.93;;
4148;SDS011;2088;51.032;7.082;2022-11-20T14:57:56;21.70;;;8.50;;
4148;SDS011;2088;51.032;7.082;2022-11-20T15:00:24;15.80;;;7.40;;
4148;SDS011;2088;51.032;7.082;2022-11-20T15:02:52;15.93;;;7.67;;
4148;SDS011;2088;51.032;7.082;2022-11-20T15:05:19;15.53;;;7.87;;
4148;SDS011;2088;51.032;7.082;2022-11-20T15:07:47;19.63;;;9.10;;
4148;SDS011;2088;51.032;7.082;2022-11-20T15:10:22;15.27;;;7.70;;
4148;SDS011;2088;51.032;7.082;2022-11-20T15:12:50;14.67;;;8.20;;
4148;SDS011;2088;51.032;7.082;2022-11-20T15:15:19;11.07;;;6.23;;
4148;SDS011;2088;51.032;7.082;2022-11-20T15:17:49;17.60;;;9.50;;
4148;SDS011;2088;51.032;7.082;2022-11-20T15:20:16;17.00;;;8.80;;
4148;SDS011;2088;51.032;7.082;2022-11-20T15:22:43;25.80;;;10.10;;
4148;SDS011;2088;51.032;7.082;2022-11-20T15:25:13;14.37;;;7.77;;
4148;SDS011;2088;51.032;7.082;2022-11-20T15:27:42;16.77;;;8.20;;
4148;SDS011;2088;51.032;7.082;2022-11-20T15:30:14;16.90;;;8.40;;
4148;SDS011;2088;51.032;7.082;2022-11-20T15:32:42;16.97;;;8.10;;
4148;SDS011;2088;51.032;7.082;2022-11-20T15:35:09;17.63;;;8.80;;
4148;SDS011;2088;51.032;7.082;2022-11-20T15:37:36;17.23;;;8.33;;